Time;durP1;ratioP1;P1;durP2;ratioP2;P2;SDS_P1;SDS_P2;PMS_P1;PMS_P2;Temp;Humidity;BMP_temperature;BMP_pressure;BME280_temperature;BME280_humidity;BME280_pressure;Samples;Min_cycle;Max_cycle;Signal;HPM_P1;HPM_P2
2022/08/05 00:00:08;;;;;;;9.95;3.15;;;23.20;99.90;;;;;;6089607;23;20029;-81
2022/08/05 00:02:35;;;;;;;6.43;2.75;;;23.10;99.90;;;;;;6089010;23;20113;-81
2022/08/05 00:05:02;;;;;;;6.47;2.75;;;23.00;99.90;;;;;;6089432;23;20595;-81
2022/08/05 00:07:29;;;;;;;8.70;2.83;;;23.00;99.90;;;;;;6089260;23;20029;-81
2022/08/05 00:09:56;;;;;;;9.70;3.15;;;23.00;99.90;;;;;;6089378;23;20022;-81
2022/08/05 00:12:23;;;;;;;7.80;3.15;;;22.90;99.90;;;;;;6089521;23;20061;-81
2022/08/05 00:14:51;;;;;;;7.35;3.08;;;22.80;99.90;;;;;;6089170;23;20101;-81
2022/08/05 00:17:18;;;;;;;8.23;3.13;;;22.80;99.90;;;;;;6089509;23;20022;-81
2022/08/05 00:19:45;;;;;;;8.32;3.00;;;22.80;99.90;;;;;;6088773;23;20092;-81
2022/08/05 00:22:12;;;;;;;7.45;3.40;;;22.80;99.90;;;;;;6089722;23;20025;-81
2022/08/05 00:24:39;;;;;;;6.05;2.72;;;22.70;99.90;;;;;;6089562;23;20046;-81
2022/08/05 00:27:06;;;;;;;7.45;2.95;;;22.70;99.90;;;;;;6089698;23;20029;-81
2022/08/05 00:29:33;;;;;;;5.90;3.17;;;22.60;99.90;;;;;;6087333;23;20026;-81
2022/08/05 00:32:02;;;;;;;6.47;2.85;;;22.60;99.90;;;;;;6089701;23;20026;-81
2022/08/05 00:34:29;;;;;;;9.65;3.55;;;22.60;99.90;;;;;;6089465;23;20023;-81
2022/08/05 00:36:56;;;;;;;7.03;3.03;;;22.60;99.90;;;;;;6089664;23;20030;-81
2022/08/05 00:39:23;;;;;;;7.07;2.78;;;22.50;99.90;;;;;;6089308;23;20050;-81
2022/08/05 00:41:50;;;;;;;6.60;2.70;;;22.50;99.90;;;;;;6089029;23;20503;-81
2022/08/05 00:44:17;;;;;;;6.05;3.08;;;22.50;99.90;;;;;;6089475;23;20027;-81
2022/08/05 00:46:44;;;;;;;6.95;2.92;;;22.50;99.90;;;;;;6089093;23;20333;-81
2022/08/05 00:49:13;;;;;;;6.82;3.30;;;22.40;99.90;;;;;;6089242;23;20092;-81
2022/08/05 00:51:40;;;;;;;6.53;3.10;;;22.40;99.90;;;;;;6088819;23;20036;-81
2022/08/05 00:54:06;;;;;;;5.20;2.70;;;22.40;99.90;;;;;;6089505;23;20022;-81
2022/08/05 00:56:33;;;;;;;6.65;3.30;;;22.40;99.90;;;;;;6089263;23;20014;-81
2022/08/05 00:59:00;;;;;;;5.40;2.70;;;22.40;99.90;;;;;;6089136;23;20023;-81
2022/08/05 01:01:27;;;;;;;9.23;3.20;;;22.30;99.90;;;;;;6088884;23;20105;-81
2022/08/05 01:03:54;;;;;;;7.50;3.35;;;22.30;99.90;;;;;;6089498;23;20050;-81
2022/08/05 01:06:23;;;;;;;8.98;3.58;;;22.30;99.90;;;;;;6089615;23;20038;-81
2022/08/05 01:08:49;;;;;;;7.00;3.10;;;22.30;99.90;;;;;;6089885;23;20344;-81
2022/08/05 01:11:19;;;;;;;6.72;3.20;;;22.20;99.90;;;;;;6088755;23;20049;-81
2022/08/05 01:13:52;;;;;;;12.93;3.58;;;22.20;99.90;;;;;;6089459;23;20397;-81
2022/08/05 01:16:24;;;;;;;10.30;3.58;;;22.20;99.90;;;;;;6089172;23;20444;-81
2022/08/05 01:18:56;;;;;;;6.47;2.72;;;22.20;99.90;;;;;;6089236;23;20049;-81
2022/08/05 01:21:38;;;;;;;7.88;3.40;;;22.20;99.90;;;;;;6088684;23;20445;-81
2022/08/05 01:24:14;;;;;;;5.25;2.88;;;22.10;99.90;;;;;;6089201;23;20022;-81
2022/08/05 01:26:57;;;;;;;7.82;3.10;;;22.10;99.90;;;;;;6089261;23;20049;-81
2022/08/05 01:29:31;;;;;;;5.88;3.33;;;22.10;99.90;;;;;;6088508;23;20026;-81
2022/08/05 01:32:03;;;;;;;8.73;3.65;;;22.10;99.90;;;;;;6089092;23;20097;-81
2022/08/05 01:34:32;;;;;;;8.45;3.83;;;22.10;99.90;;;;;;6089311;23;20029;-81
2022/08/05 01:37:04;;;;;;;8.68;3.80;;;22.10;99.90;;;;;;6088848;23;20025;-81
2022/08/05 01:39:31;;;;;;;9.85;4.65;;;22.10;99.90;;;;;;6088427;23;20032;-81
2022/08/05 01:41:59;;;;;;;10.25;4.70;;;22.10;99.90;;;;;;6088250;23;20106;-81
2022/08/05 01:44:27;;;;;;;10.73;4.50;;;22.10;99.90;;;;;;6089029;23;20102;-81
2022/08/05 01:46:55;;;;;;;10.45;4.45;;;22.10;99.90;;;;;;6089066;23;20025;-81
2022/08/05 01:49:24;;;;;;;8.93;4.63;;;22.10;99.90;;;;;;6088394;23;20054;-81
2022/08/05 01:51:54;;;;;;;8.68;4.60;;;22.00;99.90;;;;;;6088994;23;20023;-81
2022/08/05 01:54:22;;;;;;;9.35;4.20;;;22.00;99.90;;;;;;6088853;23;20154;-81
2022/08/05 01:56:50;;;;;;;8.93;4.50;;;22.10;99.90;;;;;;6088840;23;20042;-81
2022/08/05 01:59:18;;;;;;;9.02;4.28;;;22.00;99.90;;;;;;6088544;23;20468;-81
2022/08/05 02:01:47;;;;;;;9.32;4.75;;;22.10;99.90;;;;;;6088602;23;20050;-81
2022/08/05 02:04:15;;;;;;;10.05;4.80;;;22.10;99.90;;;;;;6088619;23;20018;-81
2022/08/05 02:06:42;;;;;;;10.15;4.57;;;22.10;99.90;;;;;;6088858;23;20445;-81
2022/08/05 02:09:09;;;;;;;11.60;4.53;;;22.00;99.90;;;;;;6088706;23;20053;-81
2022/08/05 02:11:42;;;;;;;9.45;4.25;;;22.00;99.90;;;;;;6089475;23;20022;-81
2022/08/05 02:14:12;;;;;;;7.97;4.97;;;22.00;99.90;;;;;;6088326;23;20427;-81
2022/08/05 02:16:45;;;;;;;10.75;4.80;;;22.10;99.90;;;;;;6089887;23;20105;-81
2022/08/05 02:19:19;;;;;;;7.75;4.60;;;22.10;99.90;;;;;;6089850;23;20027;-81
2022/08/05 02:21:59;;;;;;;10.68;4.47;;;22.00;99.90;;;;;;6089945;23;20094;-81
2022/08/05 02:24:30;;;;;;;11.05;4.82;;;22.00;99.90;;;;;;6089932;23;20029;-81
2022/08/05 02:27:00;;;;;;;;;;;22.00;99.90;;;;;;6090023;23;20072;-81
2022/08/05 02:29:28;;;;;;;10.18;5.15;;;22.10;99.90;;;;;;6089430;23;20297;-81
2022/08/05 02:31:57;;;;;;;10.23;5.68;;;22.00;99.90;;;;;;6089789;23;20409;-81
2022/08/05 02:34:29;;;;;;;11.60;5.95;;;22.10;99.90;;;;;;6089772;23;20049;-81
2022/08/05 02:36:59;;;;;;;9.23;5.18;;;22.00;99.90;;;;;;6089610;23;20038;-81
2022/08/05 02:39:28;;;;;;;12.32;5.63;;;22.10;99.90;;;;;;6089776;23;20420;-81
2022/08/05 02:41:55;;;;;;;17.23;6.55;;;22.10;99.90;;;;;;6089877;23;20035;-81
2022/08/05 02:44:24;;;;;;;14.48;7.55;;;22.00;99.90;;;;;;6089782;23;20468;-81
2022/08/05 02:46:52;;;;;;;10.95;6.40;;;22.00;99.90;;;;;;6089728;23;20049;-81
2022/08/05 02:49:19;;;;;;;12.70;7.20;;;22.00;99.90;;;;;;6089586;23;20042;-81
2022/08/05 02:51:48;;;;;;;15.40;6.97;;;22.00;99.90;;;;;;6089921;23;20029;-81
2022/08/05 02:54:15;;;;;;;14.60;7.30;;;21.90;99.90;;;;;;6089399;23;20019;-81
2022/08/05 02:56:43;;;;;;;11.35;7.22;;;22.00;99.90;;;;;;6089603;23;20025;-81
2022/08/05 02:59:11;;;;;;;12.98;7.38;;;21.90;99.90;;;;;;6089224;23;20049;-81
2022/08/05 03:01:40;;;;;;;15.65;6.63;;;21.90;99.90;;;;;;6089734;23;20022;-81
2022/08/05 03:04:09;;;;;;;13.57;7.03;;;21.90;99.90;;;;;;6087873;23;20136;-81
2022/08/05 03:06:36;;;;;;;10.77;7.13;;;21.80;99.90;;;;;;6089604;23;20021;-81
2022/08/05 03:09:05;;;;;;;13.40;7.47;;;21.90;99.90;;;;;;6089427;23;20165;-81
2022/08/05 03:11:31;;;;;;;14.27;7.57;;;21.80;99.90;;;;;;6089831;23;20060;-81
2022/08/05 03:13:58;;;;;;;12.32;6.80;;;21.80;99.90;;;;;;6088046;23;20030;-81
2022/08/05 03:16:25;;;;;;;11.52;6.65;;;21.80;99.90;;;;;;6087979;23;20360;-80
2022/08/05 03:18:52;;;;;;;16.30;7.70;;;21.80;99.90;;;;;;6087772;23;20421;-81
2022/08/05 03:21:19;;;;;;;11.98;7.35;;;21.80;99.90;;;;;;6089754;23;20050;-81
2022/08/05 03:23:47;;;;;;;15.20;7.82;;;21.70;99.90;;;;;;6089105;23;20034;-81
2022/08/05 03:26:15;;;;;;;14.15;7.30;;;21.70;99.90;;;;;;6089906;23;20524;-81
2022/08/05 03:28:42;;;;;;;16.08;7.97;;;21.70;99.90;;;;;;6089691;23;20394;-81
2022/08/05 03:31:09;;;;;;;12.88;7.72;;;21.70;99.90;;;;;;6089454;23;20019;-81
2022/08/05 03:33:36;;;;;;;13.57;7.38;;;21.70;99.90;;;;;;6089595;23;20471;-81
2022/08/05 03:36:03;;;;;;;13.43;7.20;;;21.70;99.90;;;;;;6089778;23;20018;-81
2022/08/05 03:38:30;;;;;;;11.90;7.03;;;21.70;99.90;;;;;;6089883;23;20025;-81
2022/08/05 03:43:36;;;;;;;13.63;7.70;;;21.70;99.90;;;;;;6031959;23;20073;-84
2022/08/05 03:46:04;;;;;;;10.48;6.47;;;21.70;99.90;;;;;;6032894;23;20046;-84
2022/08/05 03:48:31;;;;;;;11.70;6.88;;;21.70;99.90;;;;;;6032349;23;20106;-84
2022/08/05 03:51:03;;;;;;;13.50;6.72;;;21.70;99.90;;;;;;6031560;23;20106;-84
2022/08/05 03:53:34;;;;;;;14.77;7.80;;;21.70;99.90;;;;;;6032108;23;20019;-84
2022/08/05 03:56:02;;;;;;;;;;;21.70;99.90;;;;;;6032862;23;20034;-84
2022/08/05 03:58:32;;;;;;;13.18;7.70;;;21.60;99.90;;;;;;6032249;23;19925;-84
2022/08/05 04:01:02;;;;;;;12.85;7.38;;;21.60;99.90;;;;;;6032086;23;20027;-84
2022/08/05 04:03:30;;;;;;;10.90;6.50;;;21.60;99.90;;;;;;6032125;23;20029;-84
2022/08/05 04:05:58;;;;;;;11.40;7.10;;;21.60;99.90;;;;;;6032061;23;20019;-84
2022/08/05 04:08:25;;;;;;;13.68;7.32;;;21.50;99.90;;;;;;6031751;23;20034;-84
2022/08/05 04:10:52;;;;;;;14.05;8.40;;;21.50;99.90;;;;;;6031807;23;20091;-84
2022/08/05 04:13:20;;;;;;;13.10;7.63;;;21.50;99.90;;;;;;6032186;23;20025;-86
2022/08/05 04:15:47;;;;;;;12.65;7.78;;;21.50;99.90;;;;;;6032222;23;20015;-86
2022/08/05 04:18:15;;;;;;;13.75;8.00;;;21.50;99.90;;;;;;6032187;23;20098;-87
2022/08/05 04:20:42;;;;;;;12.25;7.95;;;21.50;99.90;;;;;;6031991;23;20023;-87
2022/08/05 04:23:10;;;;;;;13.18;8.68;;;21.50;99.90;;;;;;6032153;23;20098;-87
2022/08/05 04:25:36;;;;;;;14.32;8.88;;;21.50;99.90;;;;;;6031906;23;20023;-86
2022/08/05 04:28:04;;;;;;;12.25;7.93;;;21.50;99.90;;;;;;6032227;23;20517;-86
2022/08/05 04:30:31;;;;;;;12.00;7.90;;;21.50;99.90;;;;;;6031935;23;20019;-86
2022/08/05 04:32:58;;;;;;;12.50;8.25;;;21.50;99.90;;;;;;6032269;23;20073;-87
2022/08/05 04:35:26;;;;;;;14.90;9.00;;;21.50;99.90;;;;;;6031611;23;20045;-86
2022/08/05 04:37:53;;;;;;;13.75;9.57;;;21.50;99.90;;;;;;6032087;23;20050;-87
2022/08/05 04:40:20;;;;;;;18.60;11.43;;;21.40;99.90;;;;;;6031838;23;20386;-86
2022/08/05 04:42:47;;;;;;;21.50;12.63;;;21.40;99.90;;;;;;6032201;23;20030;-86
2022/08/05 04:45:13;;;;;;;21.35;14.68;;;21.40;99.90;;;;;;6031755;23;20050;-86
2022/08/05 04:47:40;;;;;;;20.63;14.63;;;21.50;99.90;;;;;;6031650;23;20025;-87
2022/08/05 04:50:08;;;;;;;20.83;16.52;;;21.50;99.90;;;;;;6031570;23;20027;-86
2022/08/05 04:52:36;;;;;;;20.25;16.98;;;21.50;99.90;;;;;;6032278;23;20100;-86
2022/08/05 04:55:04;;;;;;;26.73;19.23;;;21.40;99.90;;;;;;6031703;23;20030;-87
2022/08/05 04:57:31;;;;;;;29.63;21.40;;;21.40;99.90;;;;;;6031998;23;20398;-87
2022/08/05 04:59:58;;;;;;;30.08;22.20;;;21.40;99.90;;;;;;6031264;23;20024;-86
2022/08/05 05:02:24;;;;;;;30.13;23.15;;;21.40;99.90;;;;;;6031914;23;20023;-87
2022/08/05 05:04:51;;;;;;;37.35;26.38;;;21.40;99.90;;;;;;6031446;23;20046;-87
2022/08/05 05:07:18;;;;;;;36.47;26.77;;;21.40;99.90;;;;;;6031968;23;20019;-87
2022/08/05 05:09:47;;;;;;;37.97;27.83;;;21.40;99.90;;;;;;6031624;23;20094;-87
2022/08/05 05:12:13;;;;;;;47.80;33.60;;;21.40;99.90;;;;;;6032003;23;20114;-87
2022/08/05 05:14:40;;;;;;;51.17;33.92;;;21.40;99.90;;;;;;6031798;23;20069;-87
2022/08/05 05:17:07;;;;;;;51.88;35.28;;;21.30;99.90;;;;;;6031899;23;20454;-87
2022/08/05 05:19:34;;;;;;;46.95;33.28;;;21.40;99.90;;;;;;6031595;23;20034;-87
2022/08/05 05:22:01;;;;;;;39.85;30.63;;;21.40;99.90;;;;;;6031815;23;20470;-84
2022/08/05 05:24:28;;;;;;;43.00;31.50;;;21.40;99.90;;;;;;6029896;23;20098;-83
2022/08/05 05:26:56;;;;;;;47.47;32.75;;;21.40;99.90;;;;;;6031904;23;20094;-86
2022/08/05 05:29:25;;;;;;;43.28;30.52;;;21.40;99.90;;;;;;6031860;23;20406;-90
2022/08/05 05:31:52;;;;;;;40.75;29.73;;;21.40;99.90;;;;;;6032468;23;20023;-89
2022/08/05 05:34:19;;;;;;;39.95;28.85;;;21.40;99.90;;;;;;6031519;23;20027;-88
2022/08/05 05:36:46;;;;;;;41.08;29.67;;;21.40;99.90;;;;;;6030143;23;20102;-86
2022/08/05 05:39:13;;;;;;;41.80;30.33;;;21.40;99.90;;;;;;6031545;23;20090;-87
2022/08/05 05:41:40;;;;;;;41.00;29.75;;;21.40;99.90;;;;;;6030012;23;20099;-88
2022/08/05 05:44:09;;;;;;;41.45;28.05;;;21.40;99.90;;;;;;6031062;23;20070;-88
2022/08/05 05:46:36;;;;;;;44.92;28.67;;;21.40;99.90;;;;;;6029570;23;20019;-88
2022/08/05 05:49:02;;;;;;;37.38;27.98;;;21.30;99.90;;;;;;6029417;23;20110;-87
2022/08/05 05:51:29;;;;;;;38.67;27.33;;;21.30;99.90;;;;;;6029772;23;20369;-88
2022/08/05 05:53:57;;;;;;;35.60;27.65;;;21.40;99.90;;;;;;6031714;23;20086;-89
2022/08/05 05:56:25;;;;;;;40.30;27.05;;;21.40;99.90;;;;;;6030256;23;20587;-88
2022/08/05 05:58:51;;;;;;;39.72;26.67;;;21.30;99.90;;;;;;6031096;23;20023;-89
2022/08/05 06:01:20;;;;;;;35.10;26.70;;;21.40;99.90;;;;;;6031284;23;20095;-88
2022/08/05 06:03:47;;;;;;;34.28;26.73;;;21.30;99.90;;;;;;6031325;23;20023;-88
2022/08/05 06:06:14;;;;;;;42.53;27.75;;;21.30;99.90;;;;;;6030986;23;20099;-88
2022/08/05 06:08:41;;;;;;;42.03;28.05;;;21.40;99.90;;;;;;6031216;23;20023;-87
2022/08/05 06:11:07;;;;;;;36.22;27.35;;;21.30;99.90;;;;;;6031044;23;20094;-85
2022/08/05 06:13:35;;;;;;;41.17;28.13;;;21.30;99.90;;;;;;6028225;23;20122;-87
2022/08/05 06:16:02;;;;;;;38.58;27.83;;;21.40;99.90;;;;;;6029005;23;20354;-89
2022/08/05 06:18:31;;;;;;;41.22;28.83;;;21.30;99.90;;;;;;6024970;23;20106;-90
2022/08/05 06:20:58;;;;;;;45.47;29.58;;;21.30;99.90;;;;;;6028152;23;20023;-90
2022/08/05 06:23:25;;;;;;;42.90;28.73;;;21.30;99.90;;;;;;6030737;23;20101;-90
2022/08/05 06:25:52;;;;;;;44.83;30.20;;;21.30;99.90;;;;;;6030755;23;20504;-90
2022/08/05 06:28:19;;;;;;;41.55;29.92;;;21.30;99.90;;;;;;6029428;23;20027;-90
2022/08/05 06:30:46;;;;;;;41.78;30.05;;;21.30;99.90;;;;;;6030659;23;20099;-90
2022/08/05 06:33:13;;;;;;;43.28;29.98;;;21.30;99.90;;;;;;6029853;23;20024;-90
2022/08/05 06:35:41;;;;;;;41.83;31.42;;;21.30;99.90;;;;;;6029729;23;20111;-90
2022/08/05 06:38:08;;;;;;;44.38;31.52;;;21.30;99.90;;;;;;6030908;23;20094;-90
2022/08/05 06:40:35;;;;;;;44.72;29.80;;;21.30;99.90;;;;;;6030415;23;20055;-90
2022/08/05 06:43:02;;;;;;;44.55;28.90;;;21.30;99.90;;;;;;6030943;23;20024;-90
2022/08/05 06:45:29;;;;;;;43.42;30.15;;;21.20;99.90;;;;;;6030773;23;20091;-89
2022/08/05 06:47:56;;;;;;;48.83;32.72;;;21.20;99.90;;;;;;6029550;23;20091;-89
2022/08/05 06:50:23;;;;;;;54.45;36.33;;;21.20;99.90;;;;;;6029478;23;20019;-94
2022/08/05 06:52:52;;;;;;;49.83;34.15;;;21.20;99.90;;;;;;6029627;23;20027;-89
2022/08/05 06:55:19;;;;;;;45.85;31.60;;;21.20;99.90;;;;;;6029053;23;20028;-87
2022/08/05 06:57:46;;;;;;;44.83;31.63;;;21.10;99.90;;;;;;6029719;23;20089;-86
2022/08/05 07:00:13;;;;;;;41.25;30.08;;;21.10;99.90;;;;;;6031150;23;20050;-87
2022/08/05 07:02:43;;;;;;;38.60;27.77;;;21.10;99.90;;;;;;6030154;23;20019;-86
2022/08/05 07:05:10;;;;;;;37.33;24.50;;;21.10;99.90;;;;;;6031784;23;20626;-87
2022/08/05 07:07:37;;;;;;;31.67;21.92;;;21.10;99.90;;;;;;6032374;23;20026;-86
2022/08/05 07:10:08;;;;;;;29.25;18.63;;;21.00;99.90;;;;;;6031175;23;20027;-85
2022/08/05 07:18:15;;;;;;;24.02;17.33;;;21.00;99.90;;;;;;6061476;23;20027;-88
2022/08/05 07:20:42;;;;;;;27.13;17.77;;;20.90;99.90;;;;;;6040639;23;20024;-86
2022/08/05 07:23:09;;;;;;;25.50;17.35;;;20.90;99.90;;;;;;6032547;23;20090;-86
2022/08/05 07:25:37;;;;;;;27.75;16.67;;;20.90;99.90;;;;;;6030048;23;20616;-87
2022/08/05 07:28:05;;;;;;;24.20;17.65;;;20.90;99.90;;;;;;6031536;23;20045;-85
2022/08/05 07:30:32;;;;;;;26.90;18.58;;;20.90;99.90;;;;;;6030870;23;20078;-85
2022/08/05 07:32:59;;;;;;;25.58;16.60;;;20.90;99.90;;;;;;6032262;23;20343;-85
2022/08/05 07:35:26;;;;;;;20.63;15.45;;;20.90;99.90;;;;;;6032633;23;20023;-85
2022/08/05 07:37:53;;;;;;;19.77;13.50;;;20.90;99.90;;;;;;6031252;23;20098;-85
2022/08/05 07:40:20;;;;;;;20.40;11.60;;;20.90;99.90;;;;;;6031476;23;20093;-86
2022/08/05 07:42:49;;;;;;;15.07;9.75;;;20.90;99.90;;;;;;6030923;23;20027;-86
2022/08/05 07:45:16;;;;;;;23.75;10.23;;;20.90;99.90;;;;;;6032310;23;20027;-86
2022/08/05 07:47:42;;;;;;;16.15;9.13;;;20.90;99.90;;;;;;6031923;23;20023;-86
2022/08/05 07:50:10;;;;;;;18.25;10.18;;;20.90;99.90;;;;;;6028814;23;20414;-89
2022/08/05 07:52:38;;;;;;;13.48;8.35;;;20.90;99.90;;;;;;6031154;23;20027;-88
2022/08/05 07:55:06;;;;;;;17.50;9.10;;;20.80;99.90;;;;;;6031697;23;20058;-88
2022/08/05 07:57:33;;;;;;;13.30;8.55;;;20.90;99.90;;;;;;6032100;23;20673;-88
2022/08/05 08:00:01;;;;;;;19.35;9.10;;;20.80;99.90;;;;;;6030829;23;20055;-88
2022/08/05 08:02:38;;;;;;;16.17;9.20;;;20.80;99.90;;;;;;6031212;23;20058;-88
2022/08/05 08:05:06;;;;;;;17.50;9.60;;;20.80;99.90;;;;;;6031341;23;20026;-89
2022/08/05 08:07:33;;;;;;;13.75;8.98;;;20.80;99.90;;;;;;6031799;23;20027;-88
2022/08/05 08:10:00;;;;;;;14.60;8.68;;;20.80;99.90;;;;;;6030924;23;20034;-89
2022/08/05 08:12:27;;;;;;;17.77;9.55;;;20.80;99.90;;;;;;6031560;23;20393;-89
2022/08/05 08:14:54;;;;;;;13.90;8.57;;;20.80;99.90;;;;;;6031814;23;20027;-88
2022/08/05 08:17:23;;;;;;;14.52;8.18;;;20.80;99.90;;;;;;6029889;23;20023;-89
2022/08/05 08:19:50;;;;;;;17.48;9.35;;;20.80;99.90;;;;;;6030593;23;20034;-88
2022/08/05 08:22:17;;;;;;;15.82;8.45;;;20.80;99.90;;;;;;6031775;23;20027;-89
2022/08/05 08:24:44;;;;;;;16.25;8.23;;;20.80;99.90;;;;;;6031679;23;20107;-89
2022/08/05 08:27:11;;;;;;;14.32;7.78;;;20.70;99.90;;;;;;6030683;23;20025;-88
2022/08/05 08:29:38;;;;;;;10.68;7.40;;;20.80;99.90;;;;;;6028885;23;20023;-88
2022/08/05 08:32:05;;;;;;;13.23;7.50;;;20.70;99.90;;;;;;6030484;23;20106;-87
2022/08/05 08:34:33;;;;;;;12.57;6.53;;;20.70;99.90;;;;;;6031273;23;20028;-85
2022/08/05 08:37:00;;;;;;;12.82;6.72;;;20.70;99.90;;;;;;6030659;23;20050;-87
2022/08/05 08:39:27;;;;;;;13.45;7.28;;;20.70;99.90;;;;;;6029439;23;20469;-90
2022/08/05 08:41:55;;;;;;;9.93;6.28;;;20.70;99.90;;;;;;6031795;23;20098;-88
2022/08/05 08:44:24;;;;;;;12.52;6.03;;;20.70;99.90;;;;;;6031875;23;20023;-88
2022/08/05 08:46:54;;;;;;;13.27;6.38;;;20.70;99.90;;;;;;6030267;23;20078;-89
2022/08/05 08:49:23;;;;;;;11.38;6.75;;;20.70;99.90;;;;;;6030395;23;20023;-89
2022/08/05 08:51:58;;;;;;;15.45;6.40;;;20.70;99.90;;;;;;6030423;23;20023;-88
2022/08/05 08:54:25;;;;;;;14.65;6.35;;;20.70;99.90;;;;;;6031790;23;20027;-88
2022/08/05 08:56:52;;;;;;;10.38;5.80;;;20.70;99.90;;;;;;6030259;23;20038;-89
2022/08/05 08:59:20;;;;;;;10.98;5.45;;;20.70;99.90;;;;;;6028992;23;20106;-89
2022/08/05 09:01:47;;;;;;;11.50;6.30;;;20.70;99.90;;;;;;6029380;23;20107;-89
2022/08/05 09:04:14;;;;;;;11.68;6.20;;;20.60;99.90;;;;;;6029824;23;20509;-89
2022/08/05 09:06:41;;;;;;;11.95;5.85;;;20.70;99.90;;;;;;6026994;23;20102;-89
2022/08/05 09:09:09;;;;;;;13.63;5.78;;;20.70;99.90;;;;;;6029437;23;20020;-88
2022/08/05 09:11:36;;;;;;;13.57;5.93;;;20.70;99.90;;;;;;6029513;23;20097;-89
2022/08/05 09:14:04;;;;;;;11.73;5.75;;;20.60;99.90;;;;;;6030336;23;20023;-89
2022/08/05 09:16:31;;;;;;;10.38;5.47;;;20.70;99.90;;;;;;6029183;23;20023;-89
2022/08/05 09:18:58;;;;;;;12.75;5.80;;;20.70;99.90;;;;;;6028805;23;20094;-89
2022/08/05 09:21:27;;;;;;;13.10;5.97;;;20.70;99.90;;;;;;6028931;23;20027;-89
2022/08/05 09:24:03;;;;;;;12.68;5.80;;;20.70;99.90;;;;;;6030001;23;20023;-89
2022/08/05 09:26:31;;;;;;;12.93;5.72;;;20.80;99.90;;;;;;6032049;23;20458;-89
2022/08/05 09:29:00;;;;;;;13.40;5.93;;;20.80;99.90;;;;;;6030348;23;20431;-88
2022/08/05 09:31:27;;;;;;;11.20;5.68;;;20.80;99.90;;;;;;6030761;23;20030;-89
2022/08/05 09:33:57;;;;;;;9.65;5.55;;;20.80;99.90;;;;;;6031855;23;20049;-89
2022/08/05 09:36:25;;;;;;;11.82;5.68;;;20.70;99.90;;;;;;6027668;23;20421;-89
2022/08/05 09:38:57;;;;;;;11.57;5.57;;;20.80;99.90;;;;;;6029654;23;20726;-89
2022/08/05 09:41:24;;;;;;;11.15;6.03;;;20.80;99.90;;;;;;6029856;23;20031;-89
2022/08/05 09:43:53;;;;;;;13.35;6.25;;;20.80;99.90;;;;;;6030704;23;20403;-87
2022/08/05 09:46:30;;;;;;;10.73;5.47;;;20.80;99.90;;;;;;6029805;23;20033;-86
2022/08/05 09:48:57;;;;;;;14.07;5.78;;;20.80;99.90;;;;;;6030840;23;20101;-86
2022/08/05 09:51:32;;;;;;;12.07;6.03;;;20.80;99.90;;;;;;6028050;23;20031;-94
2022/08/05 09:53:59;;;;;;;12.38;5.47;;;20.80;99.90;;;;;;6030619;23;20111;-85
2022/08/05 09:56:27;;;;;;;10.27;4.95;;;20.80;99.90;;;;;;6031069;23;20019;-90
2022/08/05 09:59:00;;;;;;;12.45;5.10;;;20.80;99.90;;;;;;6028826;23;20461;-90
2022/08/05 10:01:28;;;;;;;9.68;5.22;;;20.80;99.90;;;;;;6030732;23;20078;-90
2022/08/05 10:03:58;;;;;;;10.60;5.22;;;20.80;99.90;;;;;;6030610;23;20354;-90
2022/08/05 10:06:26;;;;;;;10.35;5.20;;;20.80;99.90;;;;;;6030784;23;20023;-90
2022/08/05 10:08:53;;;;;;;9.68;4.70;;;20.80;99.90;;;;;;6030989;23;20019;-90
2022/08/05 10:11:21;;;;;;;11.85;5.60;;;20.80;99.90;;;;;;6030312;23;20442;-92
2022/08/05 10:13:48;;;;;;;11.57;4.95;;;20.80;99.90;;;;;;6032305;23;20023;-87
2022/08/05 10:16:34;;;;;;;12.93;5.13;;;20.90;99.90;;;;;;6029774;23;20073;-87
2022/08/05 10:19:01;;;;;;;13.55;6.85;;;20.90;99.90;;;;;;6029636;23;20024;-89
2022/08/05 10:21:28;;;;;;;8.40;4.47;;;20.90;99.90;;;;;;6030386;23;20073;-90
2022/08/05 10:23:56;;;;;;;14.80;4.57;;;20.90;99.90;;;;;;6031268;23;20074;-89
2022/08/05 10:26:23;;;;;;;7.80;4.40;;;21.00;99.90;;;;;;6030738;23;20529;-90
2022/08/05 10:28:50;;;;;;;8.98;4.82;;;21.00;99.90;;;;;;6028686;23;20095;-88
2022/08/05 10:31:18;;;;;;;9.15;4.80;;;21.10;99.90;;;;;;6029483;23;20492;-94
2022/08/05 10:33:46;;;;;;;8.75;5.40;;;21.20;99.90;;;;;;6030630;23;20401;-86
2022/08/05 10:36:13;;;;;;;13.63;6.78;;;21.20;99.90;;;;;;6032066;23;20069;-89
2022/08/05 10:38:44;;;;;;;11.43;6.10;;;21.30;99.90;;;;;;6031117;23;20102;-86
2022/08/05 10:41:17;;;;;;;14.05;5.97;;;21.30;99.90;;;;;;6031868;23;20094;-87
2022/08/05 10:43:51;;;;;;;10.13;5.38;;;21.40;99.90;;;;;;6031712;23;20030;-89
2022/08/05 10:46:20;;;;;;;10.52;5.68;;;21.50;99.90;;;;;;6032503;23;20031;-89
2022/08/05 10:48:51;;;;;;;11.88;4.85;;;21.50;99.90;;;;;;6029642;23;20039;-87
2022/08/05 10:51:20;;;;;;;10.85;5.95;;;21.50;99.90;;;;;;6031803;23;20366;-88
2022/08/05 10:53:53;;;;;;;9.85;6.68;;;21.60;99.90;;;;;;6032074;23;20024;-88
2022/08/05 10:56:22;;;;;;;12.55;5.90;;;21.60;99.90;;;;;;6032749;23;20038;-88
2022/08/05 10:59:03;;;;;;;13.50;5.90;;;21.70;99.90;;;;;;6028152;23;20019;-87
2022/08/05 11:01:30;;;;;;;10.52;4.85;;;21.80;99.90;;;;;;6031166;23;20062;-85
2022/08/05 11:04:08;;;;;;;10.25;4.07;;;21.80;99.90;;;;;;6031899;23;20031;-85
2022/08/05 11:06:36;;;;;;;7.30;4.00;;;21.80;99.90;;;;;;6032250;23;20070;-85
2022/08/05 11:09:27;;;;;;;10.73;4.07;;;21.80;99.90;;;;;;6032005;23;20465;-91
2022/08/05 11:11:56;;;;;;;9.40;4.40;;;21.90;99.90;;;;;;6038667;23;20106;-95
2022/08/05 11:14:28;;;;;;;10.13;5.47;;;21.90;99.90;;;;;;6032492;23;20240;-89
2022/08/05 11:17:31;;;;;;;9.35;4.63;;;22.00;99.90;;;;;;6031794;23;20042;-92
2022/08/05 11:19:59;;;;;;;12.15;5.20;;;22.00;99.90;;;;;;6027845;23;20091;-91
2022/08/05 11:22:42;;;;;;;7.38;4.88;;;22.00;99.90;;;;;;6029033;23;20126;-91
2022/08/05 11:25:29;;;;;;;9.32;5.07;;;22.00;99.90;;;;;;6032847;23;20450;-90
2022/08/05 11:27:56;;;;;;;10.25;5.53;;;22.00;99.90;;;;;;6031214;23;20029;-92
2022/08/05 11:30:23;;;;;;;9.27;5.45;;;21.90;99.80;;;;;;6029697;23;20034;-93
2022/08/05 11:32:50;;;;;;;6.57;4.25;;;22.00;99.60;;;;;;6031606;23;20023;-93
2022/08/05 11:35:53;;;;;;;9.70;4.20;;;22.00;99.90;;;;;;6029963;23;20110;-86
2022/08/05 11:38:53;;;;;;;8.20;4.20;;;22.10;99.90;;;;;;6031193;23;20045;-85
2022/08/05 11:41:21;;;;;;;8.07;4.25;;;22.10;99.90;;;;;;6029880;23;20023;-89
2022/08/05 11:43:56;;;;;;;7.88;3.63;;;22.20;99.90;;;;;;6029999;23;20413;-88
2022/08/05 11:46:27;;;;;;;8.35;3.83;;;22.20;99.90;;;;;;6031470;23;20106;-86
2022/08/05 11:48:54;;;;;;;9.07;3.92;;;22.20;99.90;;;;;;6030668;23;20102;-85
2022/08/05 11:51:23;;;;;;;6.28;3.10;;;22.30;99.90;;;;;;6031458;23;20020;-85
2022/08/05 11:53:50;;;;;;;8.70;3.65;;;22.30;99.70;;;;;;6029227;23;20081;-85
2022/08/05 11:56:17;;;;;;;6.93;3.60;;;22.30;99.20;;;;;;6031986;23;20047;-86
2022/08/05 11:58:46;;;;;;;7.90;3.78;;;22.40;99.70;;;;;;6030788;23;20019;-85
2022/08/05 12:01:15;;;;;;;8.38;3.42;;;22.50;99.50;;;;;;6031005;23;20508;-85
2022/08/05 12:03:43;;;;;;;7.00;3.40;;;22.50;99.90;;;;;;6031152;23;20465;-86
2022/08/05 12:06:11;;;;;;;8.05;3.40;;;22.40;99.60;;;;;;6030991;23;20030;-86
2022/08/05 12:08:44;;;;;;;7.03;3.50;;;22.50;99.40;;;;;;6032075;23;20097;-85
2022/08/05 12:11:16;;;;;;;7.35;3.38;;;22.60;99.10;;;;;;6030700;23;20030;-86
2022/08/05 12:13:53;;;;;;;8.27;3.80;;;22.60;98.90;;;;;;6031967;23;20031;-86
2022/08/05 12:16:20;;;;;;;11.30;4.20;;;22.60;99.00;;;;;;6031375;23;20058;-86
2022/08/05 12:18:47;;;;;;;9.25;3.85;;;22.60;97.60;;;;;;6030693;23;20012;-85
2022/08/05 12:21:16;;;;;;;9.40;4.32;;;22.60;97.10;;;;;;6031572;23;20399;-90
2022/08/05 12:23:54;;;;;;;8.23;4.18;;;22.60;96.10;;;;;;6032149;23;20027;-86
2022/08/05 12:26:21;;;;;;;7.60;3.47;;;22.60;94.80;;;;;;6032226;23;20023;-88
2022/08/05 12:28:48;;;;;;;8.63;3.28;;;22.60;95.20;;;;;;6030737;23;20020;-85
2022/08/05 12:31:16;;;;;;;7.78;3.35;;;22.60;96.10;;;;;;6030687;23;20027;-87
2022/08/05 12:33:44;;;;;;;8.32;3.22;;;22.60;95.30;;;;;;6030794;23;20023;-88
2022/08/05 12:36:11;;;;;;;7.15;3.35;;;22.60;95.30;;;;;;6031691;23;20020;-86
2022/08/05 12:38:38;;;;;;;6.80;3.67;;;22.60;95.20;;;;;;6031667;23;20022;-87
2022/08/05 12:41:09;;;;;;;8.35;3.83;;;22.60;95.00;;;;;;6027861;23;20031;-86
2022/08/05 12:43:51;;;;;;;8.82;3.90;;;22.60;94.30;;;;;;6030635;23;20030;-87
2022/08/05 12:46:22;;;;;;;8.65;4.35;;;22.60;94.20;;;;;;6031667;23;20069;-87
2022/08/05 12:48:57;;;;;;;7.05;4.63;;;22.70;95.70;;;;;;6031351;23;20023;-87
2022/08/05 12:51:26;;;;;;;9.32;5.13;;;22.70;94.50;;;;;;6031054;23;20043;-87
2022/08/05 12:53:58;;;;;;;8.80;4.88;;;22.70;94.00;;;;;;6030757;23;20027;-87